Flag for Poland

Past Weather in 52°23'59"N, 16°55'00"E, Poland — Yesterday and Last 2 Weeks

Currently: 77 °F. Passing clouds. (Weather station: Poznan Airport, Poland). See more current weather

Past Weather in 52°23'59"N, 16°55'00"E — Graph

°F

52°23'59"N, 16°55'00"E Temperature Yesterday

Maximum temperature yesterday: 82 °F (at 4:30 pm)
Minimum temperature yesterday: 55 °F (at 4:30 am)
Average temperature yesterday: 71 °F

High & Low Weather Summary for the Past Weeks

 TemperatureHumidityPressure
High95 °F (Jul 10, 1:00 pm)100% (Jul 7, 3:00 am)30.24 "Hg (Jul 7, 3:00 am)
Low54 °F (Jul 6, 3:30 am)26% (Jul 8, 6:30 pm)29.59 "Hg (Jul 6, 6:30 pm)
Average71 °F67%29.97 "Hg
* Reported Jul 5 8:00 am — Jul 20 8:00 am, 52°23'59"N, 16°55'00"E. Weather by CustomWeather, © 2024

Note: Actual official high and low records may vary slightly from our data, if they occured in-between our weather recording intervals... More about our weather records

52°23'59"N, 16°55'00"E Weather History for the Previous 24 Hours

Scroll right to see more
 ConditionsComfort  
Time TempWeatherWind HumidityBarometerVisibility
8:00 am
Sat, Jul 20
73 °FPassing clouds.3 mph53%29.98 "HgN/A
7:30 am70 °FSunny.2 mph64%30.01 "Hg10 mi
7:00 am68 °FSunny.2 mph69%30.01 "Hg10 mi
6:30 am66 °FSunny.2 mph73%30.01 "Hg10 mi
6:00 am61 °FSunny.2 mph83%30.01 "Hg10 mi
5:30 am59 °FSunny.2 mph88%30.01 "Hg10 mi
5:00 am59 °FSunny.1 mph88%30.01 "Hg10 mi
4:30 am59 °FClear.2 mph88%30.01 "Hg10 mi
4:00 am59 °FClear.2 mph88%30.01 "Hg10 mi
3:30 am61 °FClear.1 mph83%30.04 "Hg10 mi
3:00 am63 °FClear.2 mph77%30.04 "Hg10 mi
2:30 am63 °FClear.2 mph77%30.04 "Hg10 mi
2:00 am59 °FClear.1 mph88%30.04 "Hg10 mi
1:30 am61 °FClear.1 mph83%30.07 "Hg10 mi
1:00 am63 °FClear.1 mph77%30.07 "Hg10 mi
12:30 am64 °FClear.6 mph78%30.07 "Hg10 mi
12:00 am63 °FClear.3 mph83%30.07 "Hg10 mi
11:30 pm
Fri, Jul 19
63 °FClear.1 mph83%30.07 "Hg10 mi
11:00 pm64 °FClear.2 mph78%30.07 "Hg10 mi
10:30 pm68 °FClear.5 mph69%30.07 "Hg10 mi
10:00 pm70 °FClear.5 mph64%30.07 "Hg10 mi
9:00 pm72 °FSunny.3 mph61%30.07 "Hg10 mi
8:30 pm75 °FSunny.3 mph50%30.07 "Hg10 mi
8:00 pm77 °FSunny.5 mph47%30.07 "Hg10 mi
7:30 pm81 °FPassing clouds.6 mph39%30.07 "HgN/A
7:00 pm82 °FPassing clouds.3 mph37%30.07 "HgN/A
6:30 pm82 °FPassing clouds.5 mph37%30.09 "HgN/A
6:00 pm82 °FPassing clouds.3 mph37%30.09 "HgN/A
5:30 pm82 °FSunny.3 mph37%30.09 "Hg10 mi
5:00 pm82 °FPassing clouds.3 mph35%30.09 "HgN/A
4:30 pm82 °FSunny.2 mph37%30.12 "Hg10 mi
3:30 pm79 °FSunny.1 mph39%30.12 "Hg10 mi
3:00 pm81 °FPassing clouds.5 mph37%30.15 "HgN/A
2:30 pm81 °FPassing clouds.3 mph37%30.15 "HgN/A
2:00 pm81 °FPassing clouds.5 mph42%30.15 "HgN/A
1:30 pm77 °FPassing clouds.3 mph44%30.15 "HgN/A
1:00 pm79 °FPassing clouds.5 mph45%30.18 "HgN/A
12:30 pm79 °FSunny.3 mph45%30.18 "Hg10 mi
12:00 pm77 °FScattered clouds.3 mph47%30.18 "HgN/A
11:30 am77 °FScattered clouds.3 mph47%30.18 "HgN/A
11:00 am77 °FPassing clouds.3 mph47%30.18 "HgN/A
10:30 am77 °FPassing clouds.2 mph47%30.18 "HgN/A
10:00 am77 °FPassing clouds.2 mph54%30.18 "HgN/A
9:30 am75 °FSunny.2 mph57%30.21 "Hg10 mi
9:00 am73 °FPassing clouds.3 mph61%30.21 "HgN/A
Weather by CustomWeather, © 2024

See weather overview